sensor_id;sensor_type;location;lat;lon;timestamp;temperature;humidity
2042;DHT22;1026;51.460;7.252;2022-08-21T00:00:53;22.20;72.80
2042;DHT22;1026;51.460;7.252;2022-08-21T00:03:19;22.10;72.70
2042;DHT22;1026;51.460;7.252;2022-08-21T00:05:48;22.10;73.50
2042;DHT22;1026;51.460;7.252;2022-08-21T00:08:16;22.10;72.70
2042;DHT22;1026;51.460;7.252;2022-08-21T00:10:43;22.10;72.80
2042;DHT22;1026;51.460;7.252;2022-08-21T00:13:09;22.10;72.80
2042;DHT22;1026;51.460;7.252;2022-08-21T00:15:36;22.00;72.70
2042;DHT22;1026;51.460;7.252;2022-08-21T00:18:05;22.10;72.80
2042;DHT22;1026;51.460;7.252;2022-08-21T00:20:33;22.00;72.70
2042;DHT22;1026;51.460;7.252;2022-08-21T00:22:59;22.00;72.70
2042;DHT22;1026;51.460;7.252;2022-08-21T00:25:25;22.00;72.70
2042;DHT22;1026;51.460;7.252;2022-08-21T00:27:51;22.00;72.70
2042;DHT22;1026;51.460;7.252;2022-08-21T00:30:19;22.00;72.80
2042;DHT22;1026;51.460;7.252;2022-08-21T00:32:45;22.00;72.80
2042;DHT22;1026;51.460;7.252;2022-08-21T00:35:14;22.00;72.80
2042;DHT22;1026;51.460;7.252;2022-08-21T00:37:41;22.00;72.90
2042;DHT22;1026;51.460;7.252;2022-08-21T00:40:10;21.90;72.70
2042;DHT22;1026;51.460;7.252;2022-08-21T00:42:36;21.90;72.70
2042;DHT22;1026;51.460;7.252;2022-08-21T00:45:03;21.90;72.80
2042;DHT22;1026;51.460;7.252;2022-08-21T00:47:30;21.90;72.80
2042;DHT22;1026;51.460;7.252;2022-08-21T00:49:55;21.90;72.80
2042;DHT22;1026;51.460;7.252;2022-08-21T00:52:24;21.90;72.80
2042;DHT22;1026;51.460;7.252;2022-08-21T00:54:52;21.90;72.80
2042;DHT22;1026;51.460;7.252;2022-08-21T00:57:22;21.80;72.80
2042;DHT22;1026;51.460;7.252;2022-08-21T00:59:51;21.90;72.80
2042;DHT22;1026;51.460;7.252;2022-08-21T01:02:21;21.90;72.80
2042;DHT22;1026;51.460;7.252;2022-08-21T01:04:47;21.80;72.80
2042;DHT22;1026;51.460;7.252;2022-08-21T01:07:13;21.80;72.80
2042;DHT22;1026;51.460;7.252;2022-08-21T01:09:39;21.80;72.80
2042;DHT22;1026;51.460;7.252;2022-08-21T01:12:06;21.80;72.90
2042;DHT22;1026;51.460;7.252;2022-08-21T01:14:32;21.80;72.90
2042;DHT22;1026;51.460;7.252;2022-08-21T01:16:59;21.80;73.00
2042;DHT22;1026;51.460;7.252;2022-08-21T01:19:26;21.80;73.00
2042;DHT22;1026;51.460;7.252;2022-08-21T01:21:52;21.70;73.00
2042;DHT22;1026;51.460;7.252;2022-08-21T01:24:19;21.70;73.00
2042;DHT22;1026;51.460;7.252;2022-08-21T01:26:45;21.70;73.00
2042;DHT22;1026;51.460;7.252;2022-08-21T01:29:22;21.70;73.00
2042;DHT22;1026;51.460;7.252;2022-08-21T01:31:51;21.70;73.50
2042;DHT22;1026;51.460;7.252;2022-08-21T01:34:17;21.70;73.10
2042;DHT22;1026;51.460;7.252;2022-08-21T01:36:44;21.50;72.90
2042;DHT22;1026;51.460;7.252;2022-08-21T01:39:11;21.60;73.10
2042;DHT22;1026;51.460;7.252;2022-08-21T01:41:36;21.60;73.10
2042;DHT22;1026;51.460;7.252;2022-08-21T01:44:03;21.60;73.10
2042;DHT22;1026;51.460;7.252;2022-08-21T01:46:28;21.60;73.10
2042;DHT22;1026;51.460;7.252;2022-08-21T01:48:54;21.60;73.10
2042;DHT22;1026;51.460;7.252;2022-08-21T01:51:20;21.60;73.90
2042;DHT22;1026;51.460;7.252;2022-08-21T01:53:45;21.60;73.20
2042;DHT22;1026;51.460;7.252;2022-08-21T01:56:14;21.50;73.20
2042;DHT22;1026;51.460;7.252;2022-08-21T01:58:43;21.50;73.10
2042;DHT22;1026;51.460;7.252;2022-08-21T02:01:10;21.50;73.20
2042;DHT22;1026;51.460;7.252;2022-08-21T02:03:36;21.50;73.20
2042;DHT22;1026;51.460;7.252;2022-08-21T02:06:03;21.50;73.30
2042;DHT22;1026;51.460;7.252;2022-08-21T02:08:29;21.50;73.30
2042;DHT22;1026;51.460;7.252;2022-08-21T02:10:54;21.40;73.20
2042;DHT22;1026;51.460;7.252;2022-08-21T02:13:20;21.40;73.20
2042;DHT22;1026;51.460;7.252;2022-08-21T02:15:46;21.40;73.30
2042;DHT22;1026;51.460;7.252;2022-08-21T02:18:12;21.40;73.30
2042;DHT22;1026;51.460;7.252;2022-08-21T02:20:41;21.40;73.40
2042;DHT22;1026;51.460;7.252;2022-08-21T02:23:09;21.40;73.40
2042;DHT22;1026;51.460;7.252;2022-08-21T02:25:35;21.30;73.30
2042;DHT22;1026;51.460;7.252;2022-08-21T02:28:05;21.30;73.40
2042;DHT22;1026;51.460;7.252;2022-08-21T02:30:35;21.30;73.40
2042;DHT22;1026;51.460;7.252;2022-08-21T02:33:03;21.30;73.40
2042;DHT22;1026;51.460;7.252;2022-08-21T02:35:29;21.30;73.40
2042;DHT22;1026;51.460;7.252;2022-08-21T02:37:59;21.30;73.50
2042;DHT22;1026;51.460;7.252;2022-08-21T02:40:29;21.30;73.60
2042;DHT22;1026;51.460;7.252;2022-08-21T02:42:56;21.20;73.50
2042;DHT22;1026;51.460;7.252;2022-08-21T02:45:23;21.10;73.40
2042;DHT22;1026;51.460;7.252;2022-08-21T02:47:53;21.20;73.60
2042;DHT22;1026;51.460;7.252;2022-08-21T02:50:24;21.20;73.60
2042;DHT22;1026;51.460;7.252;2022-08-21T02:52:50;21.00;73.40
2042;DHT22;1026;51.460;7.252;2022-08-21T02:55:18;21.10;73.60
2042;DHT22;1026;51.460;7.252;2022-08-21T02:57:45;21.10;74.40
2042;DHT22;1026;51.460;7.252;2022-08-21T03:00:11;21.10;73.70
2042;DHT22;1026;51.460;7.252;2022-08-21T03:02:38;21.10;73.80
2042;DHT22;1026;51.460;7.252;2022-08-21T03:05:06;20.90;73.60
2042;DHT22;1026;51.460;7.252;2022-08-21T03:07:32;21.00;73.80
2042;DHT22;1026;51.460;7.252;2022-08-21T03:09:58;21.00;73.80
2042;DHT22;1026;51.460;7.252;2022-08-21T03:12:24;21.00;73.80
2042;DHT22;1026;51.460;7.252;2022-08-21T03:14:50;21.00;73.90
2042;DHT22;1026;51.460;7.252;2022-08-21T03:17:15;21.00;73.90
2042;DHT22;1026;51.460;7.252;2022-08-21T03:19:41;21.00;73.90
2042;DHT22;1026;51.460;7.252;2022-08-21T03:22:07;20.90;73.90
2042;DHT22;1026;51.460;7.252;2022-08-21T03:24:33;20.90;73.90
2042;DHT22;1026;51.460;7.252;2022-08-21T03:26:59;20.90;74.00
2042;DHT22;1026;51.460;7.252;2022-08-21T03:29:25;20.90;74.00
2042;DHT22;1026;51.460;7.252;2022-08-21T03:31:50;20.90;73.90
2042;DHT22;1026;51.460;7.252;2022-08-21T03:34:18;20.90;74.00
2042;DHT22;1026;51.460;7.252;2022-08-21T03:36:44;20.80;73.90
2042;DHT22;1026;51.460;7.252;2022-08-21T03:39:10;20.80;73.90
2042;DHT22;1026;51.460;7.252;2022-08-21T03:41:35;20.80;73.90
2042;DHT22;1026;51.460;7.252;2022-08-21T03:44:01;20.80;74.00
2042;DHT22;1026;51.460;7.252;2022-08-21T03:46:27;20.80;74.00
2042;DHT22;1026;51.460;7.252;2022-08-21T03:48:52;20.80;74.00
2042;DHT22;1026;51.460;7.252;2022-08-21T03:51:19;20.80;74.00
2042;DHT22;1026;51.460;7.252;2022-08-21T03:53:44;20.70;73.90
2042;DHT22;1026;51.460;7.252;2022-08-21T03:56:10;20.70;74.00
2042;DHT22;1026;51.460;7.252;2022-08-21T03:58:36;20.70;74.00
2042;DHT22;1026;51.460;7.252;2022-08-21T04:01:05;20.70;74.00
2042;DHT22;1026;51.460;7.252;2022-08-21T04:03:32;20.70;74.10
2042;DHT22;1026;51.460;7.252;2022-08-21T04:05:59;20.70;74.10
2042;DHT22;1026;51.460;7.252;2022-08-21T04:08:24;20.60;74.00
2042;DHT22;1026;51.460;7.252;2022-08-21T04:10:52;20.60;74.00
2042;DHT22;1026;51.460;7.252;2022-08-21T04:13:19;20.60;74.10
2042;DHT22;1026;51.460;7.252;2022-08-21T04:15:45;20.60;74.10
2042;DHT22;1026;51.460;7.252;2022-08-21T04:18:11;20.60;74.10
2042;DHT22;1026;51.460;7.252;2022-08-21T04:20:37;20.60;74.10
2042;DHT22;1026;51.460;7.252;2022-08-21T04:23:04;20.60;74.10
2042;DHT22;1026;51.460;7.252;2022-08-21T04:25:30;20.60;74.10
2042;DHT22;1026;51.460;7.252;2022-08-21T04:27:55;20.50;74.00
2042;DHT22;1026;51.460;7.252;2022-08-21T04:30:22;20.50;74.00
2042;DHT22;1026;51.460;7.252;2022-08-21T04:32:49;20.50;74.00
2042;DHT22;1026;51.460;7.252;2022-08-21T04:35:19;20.50;74.00
2042;DHT22;1026;51.460;7.252;2022-08-21T04:37:45;20.50;74.10
2042;DHT22;1026;51.460;7.252;2022-08-21T04:40:12;20.50;74.00
2042;DHT22;1026;51.460;7.252;2022-08-21T04:42:45;20.50;74.10
2042;DHT22;1026;51.460;7.252;2022-08-21T04:45:28;20.40;74.00
2042;DHT22;1026;51.460;7.252;2022-08-21T04:47:56;20.40;74.10
2042;DHT22;1026;51.460;7.252;2022-08-21T04:50:27;20.40;74.10
2042;DHT22;1026;51.460;7.252;2022-08-21T04:52:54;20.40;74.10
2042;DHT22;1026;51.460;7.252;2022-08-21T04:55:20;20.20;73.90
2042;DHT22;1026;51.460;7.252;2022-08-21T04:57:47;20.40;74.10
2042;DHT22;1026;51.460;7.252;2022-08-21T05:00:16;20.40;74.10
2042;DHT22;1026;51.460;7.252;2022-08-21T05:02:44;20.40;74.10
2042;DHT22;1026;51.460;7.252;2022-08-21T05:05:12;20.30;74.80
2042;DHT22;1026;51.460;7.252;2022-08-21T05:07:38;20.30;74.10
2042;DHT22;1026;51.460;7.252;2022-08-21T05:10:05;20.30;74.20
2042;DHT22;1026;51.460;7.252;2022-08-21T05:12:33;20.30;74.20
2042;DHT22;1026;51.460;7.252;2022-08-21T05:14:59;20.30;74.10
2042;DHT22;1026;51.460;7.252;2022-08-21T05:17:25;20.20;74.10
2042;DHT22;1026;51.460;7.252;2022-08-21T05:19:50;20.20;74.10
2042;DHT22;1026;51.460;7.252;2022-08-21T05:22:20;20.20;74.10
2042;DHT22;1026;51.460;7.252;2022-08-21T05:24:46;20.20;74.10
2042;DHT22;1026;51.460;7.252;2022-08-21T05:27:12;20.10;73.80
2042;DHT22;1026;51.460;7.252;2022-08-21T05:29:38;20.30;74.10
2042;DHT22;1026;51.460;7.252;2022-08-21T05:32:12;20.10;73.90
2042;DHT22;1026;51.460;7.252;2022-08-21T05:34:38;20.10;74.10
2042;DHT22;1026;51.460;7.252;2022-08-21T05:37:05;20.20;74.20
2042;DHT22;1026;51.460;7.252;2022-08-21T05:39:40;20.20;74.10
2042;DHT22;1026;51.460;7.252;2022-08-21T05:42:07;20.10;74.00
2042;DHT22;1026;51.460;7.252;2022-08-21T05:44:36;20.10;74.10
2042;DHT22;1026;51.460;7.252;2022-08-21T05:47:09;20.10;74.10
2042;DHT22;1026;51.460;7.252;2022-08-21T05:49:37;20.10;74.10
2042;DHT22;1026;51.460;7.252;2022-08-21T05:52:03;20.10;74.10
2042;DHT22;1026;51.460;7.252;2022-08-21T05:54:30;20.10;74.10
2042;DHT22;1026;51.460;7.252;2022-08-21T05:56:59;20.10;74.40
2042;DHT22;1026;51.460;7.252;2022-08-21T05:59:25;20.10;74.20
2042;DHT22;1026;51.460;7.252;2022-08-21T06:01:50;20.00;74.20
2042;DHT22;1026;51.460;7.252;2022-08-21T06:04:22;20.10;74.20
2042;DHT22;1026;51.460;7.252;2022-08-21T06:06:53;20.00;74.20
2042;DHT22;1026;51.460;7.252;2022-08-21T06:09:19;20.10;74.30
2042;DHT22;1026;51.460;7.252;2022-08-21T06:11:45;20.00;74.10
2042;DHT22;1026;51.460;7.252;2022-08-21T06:14:17;20.00;74.20
2042;DHT22;1026;51.460;7.252;2022-08-21T06:16:43;20.10;74.50
2042;DHT22;1026;51.460;7.252;2022-08-21T06:19:09;20.00;74.30
2042;DHT22;1026;51.460;7.252;2022-08-21T06:21:35;19.90;74.40
2042;DHT22;1026;51.460;7.252;2022-08-21T06:24:00;20.00;74.50
2042;DHT22;1026;51.460;7.252;2022-08-21T06:26:26;20.00;74.50
2042;DHT22;1026;51.460;7.252;2022-08-21T06:28:53;20.00;74.50
2042;DHT22;1026;51.460;7.252;2022-08-21T06:31:21;19.90;74.40
2042;DHT22;1026;51.460;7.252;2022-08-21T06:33:47;20.00;74.60
2042;DHT22;1026;51.460;7.252;2022-08-21T06:36:13;20.00;74.50
2042;DHT22;1026;51.460;7.252;2022-08-21T06:38:40;19.90;74.40
2042;DHT22;1026;51.460;7.252;2022-08-21T06:41:06;19.90;74.40
2042;DHT22;1026;51.460;7.252;2022-08-21T06:43:32;19.90;74.40
2042;DHT22;1026;51.460;7.252;2022-08-21T06:45:58;19.90;74.40
2042;DHT22;1026;51.460;7.252;2022-08-21T06:48:24;19.90;74.40
2042;DHT22;1026;51.460;7.252;2022-08-21T06:50:49;19.90;74.50
2042;DHT22;1026;51.460;7.252;2022-08-21T06:53:18;19.90;74.60
2042;DHT22;1026;51.460;7.252;2022-08-21T06:55:45;19.90;74.60
2042;DHT22;1026;51.460;7.252;2022-08-21T06:58:11;19.90;74.60
2042;DHT22;1026;51.460;7.252;2022-08-21T07:00:40;19.90;74.60
2042;DHT22;1026;51.460;7.252;2022-08-21T07:03:07;19.90;74.60
2042;DHT22;1026;51.460;7.252;2022-08-21T07:05:32;19.90;74.60
2042;DHT22;1026;51.460;7.252;2022-08-21T07:07:58;19.80;74.50
2042;DHT22;1026;51.460;7.252;2022-08-21T07:10:25;19.90;74.60
2042;DHT22;1026;51.460;7.252;2022-08-21T07:12:52;19.90;74.60
2042;DHT22;1026;51.460;7.252;2022-08-21T07:15:19;19.90;74.70
2042;DHT22;1026;51.460;7.252;2022-08-21T07:17:45;19.80;74.60
2042;DHT22;1026;51.460;7.252;2022-08-21T07:20:11;19.80;74.60
2042;DHT22;1026;51.460;7.252;2022-08-21T07:22:37;19.80;74.60
2042;DHT22;1026;51.460;7.252;2022-08-21T07:25:05;19.80;74.60
2042;DHT22;1026;51.460;7.252;2022-08-21T07:27:31;19.80;74.60
2042;DHT22;1026;51.460;7.252;2022-08-21T07:29:57;19.80;74.70
2042;DHT22;1026;51.460;7.252;2022-08-21T07:32:23;19.80;74.60
2042;DHT22;1026;51.460;7.252;2022-08-21T07:34:49;19.80;74.60
2042;DHT22;1026;51.460;7.252;2022-08-21T07:37:15;19.80;74.60
2042;DHT22;1026;51.460;7.252;2022-08-21T07:39:40;19.80;74.60
2042;DHT22;1026;51.460;7.252;2022-08-21T07:42:06;19.80;74.70
2042;DHT22;1026;51.460;7.252;2022-08-21T07:44:32;19.80;74.60
2042;DHT22;1026;51.460;7.252;2022-08-21T07:47:00;19.80;74.60
2042;DHT22;1026;51.460;7.252;2022-08-21T07:49:26;19.80;74.60
2042;DHT22;1026;51.460;7.252;2022-08-21T07:51:52;19.80;74.60
2042;DHT22;1026;51.460;7.252;2022-08-21T07:54:17;19.80;74.60
2042;DHT22;1026;51.460;7.252;2022-08-21T07:56:43;19.80;74.60
2042;DHT22;1026;51.460;7.252;2022-08-21T07:59:09;19.80;74.60
2042;DHT22;1026;51.460;7.252;2022-08-21T08:01:34;19.80;74.60
2042;DHT22;1026;51.460;7.252;2022-08-21T08:04:00;19.80;74.60
2042;DHT22;1026;51.460;7.252;2022-08-21T08:06:26;19.70;74.50
2042;DHT22;1026;51.460;7.252;2022-08-21T08:08:51;19.80;74.60
2042;DHT22;1026;51.460;7.252;2022-08-21T08:11:17;19.80;74.50
2042;DHT22;1026;51.460;7.252;2022-08-21T08:13:47;19.80;74.50
2042;DHT22;1026;51.460;7.252;2022-08-21T08:16:13;19.80;74.60
2042;DHT22;1026;51.460;7.252;2022-08-21T08:18:40;19.80;74.60
2042;DHT22;1026;51.460;7.252;2022-08-21T08:21:07;19.80;74.50
2042;DHT22;1026;51.460;7.252;2022-08-21T08:23:33;19.80;74.50
2042;DHT22;1026;51.460;7.252;2022-08-21T08:25:59;19.80;74.50
2042;DHT22;1026;51.460;7.252;2022-08-21T08:28:25;19.80;74.50
2042;DHT22;1026;51.460;7.252;2022-08-21T08:30:52;19.80;74.50
2042;DHT22;1026;51.460;7.252;2022-08-21T08:33:18;19.90;74.50
2042;DHT22;1026;51.460;7.252;2022-08-21T08:35:46;19.80;74.30
2042;DHT22;1026;51.460;7.252;2022-08-21T08:38:13;19.90;74.40
2042;DHT22;1026;51.460;7.252;2022-08-21T08:43:27;19.90;74.50
2042;DHT22;1026;51.460;7.252;2022-08-21T08:45:56;19.90;74.40
2042;DHT22;1026;51.460;7.252;2022-08-21T08:48:50;19.90;74.30
2042;DHT22;1026;51.460;7.252;2022-08-21T08:51:42;19.90;74.30
2042;DHT22;1026;51.460;7.252;2022-08-21T08:54:11;19.90;74.30
2042;DHT22;1026;51.460;7.252;2022-08-21T08:56:38;19.90;74.00
2042;DHT22;1026;51.460;7.252;2022-08-21T08:59:12;19.90;74.10
2042;DHT22;1026;51.460;7.252;2022-08-21T09:01:39;19.90;74.10
2042;DHT22;1026;51.460;7.252;2022-08-21T09:04:05;20.00;74.10
2042;DHT22;1026;51.460;7.252;2022-08-21T09:06:39;20.00;74.00
2042;DHT22;1026;51.460;7.252;2022-08-21T09:09:25;20.00;73.80
2042;DHT22;1026;51.460;7.252;2022-08-21T09:12:12;19.90;73.80
2042;DHT22;1026;51.460;7.252;2022-08-21T09:18:01;20.00;73.90
2042;DHT22;1026;51.460;7.252;2022-08-21T09:20:47;20.00;73.80
2042;DHT22;1026;51.460;7.252;2022-08-21T09:28:38;20.00;73.80
2042;DHT22;1026;51.460;7.252;2022-08-21T09:31:07;20.00;73.80
2042;DHT22;1026;51.460;7.252;2022-08-21T09:33:33;20.00;73.70
2042;DHT22;1026;51.460;7.252;2022-08-21T09:35:59;20.00;73.60
2042;DHT22;1026;51.460;7.252;2022-08-21T09:38:36;20.00;73.60
2042;DHT22;1026;51.460;7.252;2022-08-21T09:41:10;20.10;73.70
2042;DHT22;1026;51.460;7.252;2022-08-21T09:43:37;20.10;73.70
2042;DHT22;1026;51.460;7.252;2022-08-21T09:48:51;20.10;73.60
2042;DHT22;1026;51.460;7.252;2022-08-21T09:51:23;20.10;73.60
2042;DHT22;1026;51.460;7.252;2022-08-21T09:56:38;20.20;73.60
2042;DHT22;1026;51.460;7.252;2022-08-21T09:59:30;20.00;73.40
2042;DHT22;1026;51.460;7.252;2022-08-21T10:01:59;20.20;73.60
2042;DHT22;1026;51.460;7.252;2022-08-21T10:04:33;20.20;73.60
2042;DHT22;1026;51.460;7.252;2022-08-21T10:07:09;20.20;73.50
2042;DHT22;1026;51.460;7.252;2022-08-21T10:09:35;20.20;73.40
2042;DHT22;1026;51.460;7.252;2022-08-21T10:14:59;20.20;73.40
2042;DHT22;1026;51.460;7.252;2022-08-21T10:20:11;20.20;73.40
2042;DHT22;1026;51.460;7.252;2022-08-21T10:25:23;20.20;73.30
2042;DHT22;1026;51.460;7.252;2022-08-21T10:28:11;20.30;73.40
2042;DHT22;1026;51.460;7.252;2022-08-21T10:30:51;20.30;73.30
2042;DHT22;1026;51.460;7.252;2022-08-21T10:36:13;20.30;73.30
2042;DHT22;1026;51.460;7.252;2022-08-21T10:38:54;20.30;73.50
2042;DHT22;1026;51.460;7.252;2022-08-21T10:42:35;20.30;73.40
2042;DHT22;1026;51.460;7.252;2022-08-21T10:44:36;20.30;73.20
2042;DHT22;1026;51.460;7.252;2022-08-21T10:55:06;20.40;73.30
2042;DHT22;1026;51.460;7.252;2022-08-21T10:57:51;20.40;72.90
2042;DHT22;1026;51.460;7.252;2022-08-21T11:00:26;20.40;73.60
2042;DHT22;1026;51.460;7.252;2022-08-21T11:02:59;20.40;73.80
2042;DHT22;1026;51.460;7.252;2022-08-21T11:05:40;20.40;72.80
2042;DHT22;1026;51.460;7.252;2022-08-21T11:08:12;20.50;71.60
2042;DHT22;1026;51.460;7.252;2022-08-21T11:10:44;20.40;72.00
2042;DHT22;1026;51.460;7.252;2022-08-21T11:13:19;20.50;72.70
2042;DHT22;1026;51.460;7.252;2022-08-21T11:18:36;20.60;73.20
2042;DHT22;1026;51.460;7.252;2022-08-21T11:21:26;20.60;70.80
2042;DHT22;1026;51.460;7.252;2022-08-21T11:24:02;20.70;71.10
2042;DHT22;1026;51.460;7.252;2022-08-21T11:26:38;20.70;71.00
2042;DHT22;1026;51.460;7.252;2022-08-21T11:29:22;20.70;71.10
2042;DHT22;1026;51.460;7.252;2022-08-21T11:32:38;20.80;71.60
2042;DHT22;1026;51.460;7.252;2022-08-21T11:35:48;20.80;71.20
2042;DHT22;1026;51.460;7.252;2022-08-21T11:37:40;20.80;71.50
2042;DHT22;1026;51.460;7.252;2022-08-21T11:45:21;20.90;71.80
2042;DHT22;1026;51.460;7.252;2022-08-21T11:50:48;20.90;71.40
2042;DHT22;1026;51.460;7.252;2022-08-21T11:53:26;20.90;70.00
2042;DHT22;1026;51.460;7.252;2022-08-21T11:56:00;21.00;72.00
2042;DHT22;1026;51.460;7.252;2022-08-21T11:58:32;20.90;71.10
2042;DHT22;1026;51.460;7.252;2022-08-21T12:03:34;21.10;70.60
2042;DHT22;1026;51.460;7.252;2022-08-21T12:06:05;21.10;70.60
2042;DHT22;1026;51.460;7.252;2022-08-21T12:08:33;21.10;71.50
2042;DHT22;1026;51.460;7.252;2022-08-21T12:13:36;21.20;70.00
2042;DHT22;1026;51.460;7.252;2022-08-21T12:18:32;21.20;71.20
2042;DHT22;1026;51.460;7.252;2022-08-21T12:23:44;21.30;71.50
2042;DHT22;1026;51.460;7.252;2022-08-21T12:29:16;21.40;70.30
2042;DHT22;1026;51.460;7.252;2022-08-21T12:31:52;21.30;71.10
2042;DHT22;1026;51.460;7.252;2022-08-21T12:34:18;21.40;70.30
2042;DHT22;1026;51.460;7.252;2022-08-21T12:36:49;21.40;70.00
2042;DHT22;1026;51.460;7.252;2022-08-21T12:39:24;21.50;70.80
2042;DHT22;1026;51.460;7.252;2022-08-21T12:41:54;21.50;70.10
2042;DHT22;1026;51.460;7.252;2022-08-21T12:44:29;21.50;70.60
2042;DHT22;1026;51.460;7.252;2022-08-21T12:47:02;21.60;69.80
2042;DHT22;1026;51.460;7.252;2022-08-21T12:49:30;21.60;68.80
2042;DHT22;1026;51.460;7.252;2022-08-21T12:54:44;21.70;67.40
2042;DHT22;1026;51.460;7.252;2022-08-21T12:57:23;21.70;68.50
2042;DHT22;1026;51.460;7.252;2022-08-21T12:59:55;21.80;69.90
2042;DHT22;1026;51.460;7.252;2022-08-21T13:02:25;21.80;70.30
2042;DHT22;1026;51.460;7.252;2022-08-21T13:04:52;21.80;69.20
2042;DHT22;1026;51.460;7.252;2022-08-21T13:07:26;21.80;68.50
2042;DHT22;1026;51.460;7.252;2022-08-21T13:09:58;21.90;69.40
2042;DHT22;1026;51.460;7.252;2022-08-21T13:12:24;21.90;69.60
2042;DHT22;1026;51.460;7.252;2022-08-21T13:14:51;21.90;69.60
2042;DHT22;1026;51.460;7.252;2022-08-21T13:17:19;22.00;68.70
2042;DHT22;1026;51.460;7.252;2022-08-21T13:19:55;22.00;67.80
2042;DHT22;1026;51.460;7.252;2022-08-21T13:22:21;22.00;68.50
2042;DHT22;1026;51.460;7.252;2022-08-21T13:24:47;22.00;68.70
2042;DHT22;1026;51.460;7.252;2022-08-21T13:27:20;22.10;69.00
2042;DHT22;1026;51.460;7.252;2022-08-21T13:29:47;22.10;69.00
2042;DHT22;1026;51.460;7.252;2022-08-21T13:32:21;22.20;68.50
2042;DHT22;1026;51.460;7.252;2022-08-21T13:34:47;22.10;68.50
2042;DHT22;1026;51.460;7.252;2022-08-21T13:37:14;22.30;67.60
2042;DHT22;1026;51.460;7.252;2022-08-21T13:39:40;22.30;68.40
2042;DHT22;1026;51.460;7.252;2022-08-21T13:42:11;22.30;68.10
2042;DHT22;1026;51.460;7.252;2022-08-21T13:44:46;22.40;68.10
2042;DHT22;1026;51.460;7.252;2022-08-21T13:47:14;22.40;68.40
2042;DHT22;1026;51.460;7.252;2022-08-21T13:49:44;22.50;67.00
2042;DHT22;1026;51.460;7.252;2022-08-21T13:52:17;22.50;68.80
2042;DHT22;1026;51.460;7.252;2022-08-21T13:54:56;22.50;69.30
2042;DHT22;1026;51.460;7.252;2022-08-21T13:57:32;22.60;69.10
2042;DHT22;1026;51.460;7.252;2022-08-21T14:02:41;22.60;66.60
2042;DHT22;1026;51.460;7.252;2022-08-21T14:05:16;22.70;66.90
2042;DHT22;1026;51.460;7.252;2022-08-21T14:07:44;22.70;66.60
2042;DHT22;1026;51.460;7.252;2022-08-21T14:10:16;22.80;67.70
2042;DHT22;1026;51.460;7.252;2022-08-21T14:12:53;22.80;68.00
2042;DHT22;1026;51.460;7.252;2022-08-21T14:15:27;22.80;67.60
2042;DHT22;1026;51.460;7.252;2022-08-21T14:17:54;22.90;67.80
2042;DHT22;1026;51.460;7.252;2022-08-21T14:20:35;22.90;68.00
2042;DHT22;1026;51.460;7.252;2022-08-21T14:23:02;23.00;67.20
2042;DHT22;1026;51.460;7.252;2022-08-21T14:25:36;22.90;66.60
2042;DHT22;1026;51.460;7.252;2022-08-21T14:30:51;23.10;65.60
2042;DHT22;1026;51.460;7.252;2022-08-21T14:33:29;23.20;65.50
2042;DHT22;1026;51.460;7.252;2022-08-21T14:35:56;23.20;65.70
2042;DHT22;1026;51.460;7.252;2022-08-21T14:38:25;23.40;67.60
2042;DHT22;1026;51.460;7.252;2022-08-21T14:40:54;23.20;67.70
2042;DHT22;1026;51.460;7.252;2022-08-21T14:43:21;23.30;67.20
2042;DHT22;1026;51.460;7.252;2022-08-21T14:45:47;23.20;65.90
2042;DHT22;1026;51.460;7.252;2022-08-21T14:48:12;23.40;66.20
2042;DHT22;1026;51.460;7.252;2022-08-21T14:50:38;23.40;65.50
2042;DHT22;1026;51.460;7.252;2022-08-21T14:53:04;23.40;64.70
2042;DHT22;1026;51.460;7.252;2022-08-21T14:55:31;23.50;66.60
2042;DHT22;1026;51.460;7.252;2022-08-21T14:58:17;23.50;66.60
2042;DHT22;1026;51.460;7.252;2022-08-21T15:00:42;23.50;67.10
2042;DHT22;1026;51.460;7.252;2022-08-21T15:03:08;23.50;66.70
2042;DHT22;1026;51.460;7.252;2022-08-21T15:05:34;23.50;65.70
2042;DHT22;1026;51.460;7.252;2022-08-21T15:07:59;23.60;66.80
2042;DHT22;1026;51.460;7.252;2022-08-21T15:10:25;23.60;66.20
2042;DHT22;1026;51.460;7.252;2022-08-21T15:12:51;23.60;65.70
2042;DHT22;1026;51.460;7.252;2022-08-21T15:15:16;23.60;65.20
2042;DHT22;1026;51.460;7.252;2022-08-21T15:17:42;23.60;65.20
2042;DHT22;1026;51.460;7.252;2022-08-21T15:20:08;23.60;65.90
2042;DHT22;1026;51.460;7.252;2022-08-21T15:22:34;23.70;65.70
2042;DHT22;1026;51.460;7.252;2022-08-21T15:25:00;23.70;65.70
2042;DHT22;1026;51.460;7.252;2022-08-21T15:27:27;23.70;65.30
2042;DHT22;1026;51.460;7.252;2022-08-21T15:29:53;23.70;64.80
2042;DHT22;1026;51.460;7.252;2022-08-21T15:32:23;23.80;66.10
2042;DHT22;1026;51.460;7.252;2022-08-21T15:34:50;23.80;64.70
2042;DHT22;1026;51.460;7.252;2022-08-21T15:37:16;23.80;64.00
2042;DHT22;1026;51.460;7.252;2022-08-21T15:39:42;23.90;65.00
2042;DHT22;1026;51.460;7.252;2022-08-21T15:42:10;23.90;64.70
2042;DHT22;1026;51.460;7.252;2022-08-21T15:44:39;23.90;65.00
2042;DHT22;1026;51.460;7.252;2022-08-21T15:47:06;23.90;65.90
2042;DHT22;1026;51.460;7.252;2022-08-21T15:49:31;23.90;66.50
2042;DHT22;1026;51.460;7.252;2022-08-21T15:51:57;23.90;64.30
2042;DHT22;1026;51.460;7.252;2022-08-21T15:54:22;23.90;64.90
2042;DHT22;1026;51.460;7.252;2022-08-21T15:56:50;23.90;65.90
2042;DHT22;1026;51.460;7.252;2022-08-21T15:59:19;24.00;65.80
2042;DHT22;1026;51.460;7.252;2022-08-21T16:01:49;24.00;66.30
2042;DHT22;1026;51.460;7.252;2022-08-21T16:04:22;24.00;66.10
2042;DHT22;1026;51.460;7.252;2022-08-21T16:06:49;24.00;66.00
2042;DHT22;1026;51.460;7.252;2022-08-21T16:09:14;24.00;64.60
2042;DHT22;1026;51.460;7.252;2022-08-21T16:11:41;24.00;65.20
2042;DHT22;1026;51.460;7.252;2022-08-21T16:14:07;24.00;64.20
2042;DHT22;1026;51.460;7.252;2022-08-21T16:16:34;24.00;65.20
2042;DHT22;1026;51.460;7.252;2022-08-21T16:19:02;24.00;64.60
2042;DHT22;1026;51.460;7.252;2022-08-21T16:21:29;24.00;65.60
2042;DHT22;1026;51.460;7.252;2022-08-21T16:23:54;24.00;65.30
2042;DHT22;1026;51.460;7.252;2022-08-21T16:26:20;24.10;65.30
2042;DHT22;1026;51.460;7.252;2022-08-21T16:28:48;24.10;65.10
2042;DHT22;1026;51.460;7.252;2022-08-21T16:31:14;24.10;64.00
2042;DHT22;1026;51.460;7.252;2022-08-21T16:33:43;24.00;64.40
2042;DHT22;1026;51.460;7.252;2022-08-21T16:36:12;24.10;64.20
2042;DHT22;1026;51.460;7.252;2022-08-21T16:38:38;24.00;64.30
2042;DHT22;1026;51.460;7.252;2022-08-21T16:41:07;24.10;64.50
2042;DHT22;1026;51.460;7.252;2022-08-21T16:43:34;24.10;62.60
2042;DHT22;1026;51.460;7.252;2022-08-21T16:46:00;24.10;64.80
2042;DHT22;1026;51.460;7.252;2022-08-21T16:48:26;24.00;65.40
2042;DHT22;1026;51.460;7.252;2022-08-21T16:50:54;24.10;65.70
2042;DHT22;1026;51.460;7.252;2022-08-21T16:53:20;24.10;63.60
2042;DHT22;1026;51.460;7.252;2022-08-21T16:55:46;24.10;63.90
2042;DHT22;1026;51.460;7.252;2022-08-21T16:58:18;24.10;64.30
2042;DHT22;1026;51.460;7.252;2022-08-21T17:00:46;24.10;64.00
2042;DHT22;1026;51.460;7.252;2022-08-21T17:03:15;24.10;64.70
2042;DHT22;1026;51.460;7.252;2022-08-21T17:05:42;24.10;65.40
2042;DHT22;1026;51.460;7.252;2022-08-21T17:08:07;24.10;65.30
2042;DHT22;1026;51.460;7.252;2022-08-21T17:10:35;24.00;65.00
2042;DHT22;1026;51.460;7.252;2022-08-21T17:13:01;24.00;65.50
2042;DHT22;1026;51.460;7.252;2022-08-21T17:15:33;24.10;65.70
2042;DHT22;1026;51.460;7.252;2022-08-21T17:18:01;24.00;64.20
2042;DHT22;1026;51.460;7.252;2022-08-21T17:20:28;24.10;65.10